createdAt,value
2024-03-13T00:00:08.557Z,7.66
2024-03-13T00:02:35.256Z,7.64
2024-03-13T00:05:03.483Z,7.61
2024-03-13T00:07:33.177Z,7.61
2024-03-13T00:09:59.947Z,7.62
2024-03-13T00:12:26.755Z,7.64
2024-03-13T00:14:53.437Z,7.65
2024-03-13T00:17:21.073Z,7.70
2024-03-13T00:19:49.150Z,7.70
2024-03-13T00:22:16.313Z,7.69
2024-03-13T00:24:43.165Z,7.68
2024-03-13T00:27:10.193Z,7.69
2024-03-13T00:29:36.851Z,7.68
2024-03-13T00:32:04.177Z,7.64
2024-03-13T00:34:30.952Z,7.64
2024-03-13T00:36:58.019Z,7.64
2024-03-13T00:39:24.744Z,7.63
2024-03-13T00:41:51.707Z,7.58
2024-03-13T00:44:18.456Z,7.57
2024-03-13T00:46:45.206Z,7.57
2024-03-13T00:49:12.095Z,7.59
2024-03-13T00:51:39.407Z,7.56
2024-03-13T00:54:06.568Z,7.53
2024-03-13T00:56:33.727Z,7.51
2024-03-13T00:59:01.163Z,7.54
2024-03-13T01:01:28.021Z,7.54
2024-03-13T01:03:54.893Z,7.53
2024-03-13T01:06:21.621Z,7.54
2024-03-13T01:08:48.356Z,7.49
2024-03-13T01:11:15.528Z,7.43
2024-03-13T01:13:42.673Z,7.41
2024-03-13T01:16:10.306Z,7.37
2024-03-13T01:18:37.281Z,7.35
2024-03-13T01:21:04.245Z,7.28
2024-03-13T01:23:31.072Z,7.27
2024-03-13T01:25:58.056Z,7.24
2024-03-13T01:28:24.906Z,7.28
2024-03-13T01:30:51.901Z,7.26
2024-03-13T01:33:18.612Z,7.26
2024-03-13T01:35:45.554Z,7.21
2024-03-13T01:38:12.296Z,7.15
2024-03-13T01:40:39.028Z,7.12
2024-03-13T01:43:06.007Z,7.07
2024-03-13T01:45:48.025Z,7.02
2024-03-13T01:48:14.944Z,7.01
2024-03-13T01:50:43.950Z,6.95
2024-03-13T01:53:10.748Z,6.92
2024-03-13T01:55:39.537Z,6.87
2024-03-13T01:58:06.369Z,6.85
2024-03-13T02:00:34.006Z,6.78
2024-03-13T02:03:01.359Z,6.75
2024-03-13T02:05:28.314Z,6.72
2024-03-13T02:07:55.774Z,6.71
2024-03-13T02:10:22.797Z,6.66
2024-03-13T02:13:10.883Z,6.65
2024-03-13T02:15:41.983Z,6.64
2024-03-13T02:18:27.516Z,6.60
2024-03-13T02:20:55.090Z,6.60
2024-03-13T02:23:22.760Z,6.61
2024-03-13T02:25:50.345Z,6.61
2024-03-13T02:28:17.086Z,6.65
2024-03-13T02:30:44.063Z,6.65
2024-03-13T02:33:11.217Z,6.69
2024-03-13T02:35:37.944Z,6.70
2024-03-13T02:38:05.409Z,6.74
2024-03-13T02:40:32.194Z,6.68
2024-03-13T02:42:59.057Z,6.70
2024-03-13T02:45:25.766Z,6.71
2024-03-13T02:47:52.665Z,6.70
2024-03-13T02:50:19.468Z,6.72
2024-03-13T02:52:46.224Z,6.69
2024-03-13T02:55:13.103Z,6.64
2024-03-13T02:57:40.129Z,6.62
2024-03-13T03:00:08.260Z,6.61
2024-03-13T03:02:35.575Z,6.54
2024-03-13T03:05:03.248Z,6.54
2024-03-13T03:07:32.238Z,6.52
2024-03-13T03:09:59.543Z,6.50
2024-03-13T03:12:27.713Z,6.54
2024-03-13T03:14:54.936Z,6.51
2024-03-13T03:17:25.332Z,6.55
2024-03-13T03:19:52.154Z,6.57
2024-03-13T03:22:19.792Z,6.57
2024-03-13T03:24:46.685Z,6.55
2024-03-13T03:27:13.814Z,6.57
2024-03-13T03:29:40.564Z,6.47
2024-03-13T03:32:07.438Z,6.44
2024-03-13T03:34:36.357Z,6.43
2024-03-13T03:37:03.237Z,6.46
2024-03-13T03:39:30.492Z,6.47
2024-03-13T03:41:57.803Z,6.45
2024-03-13T03:44:24.757Z,6.42
2024-03-13T03:46:51.532Z,6.39
2024-03-13T03:49:18.274Z,6.36
2024-03-13T03:51:45.145Z,6.33
2024-03-13T03:54:11.864Z,6.31
2024-03-13T03:56:38.709Z,6.30
2024-03-13T03:59:09.236Z,6.27
2024-03-13T04:01:37.687Z,6.26
2024-03-13T04:04:05.052Z,6.24
2024-03-13T04:06:32.766Z,6.22
2024-03-13T04:08:59.519Z,6.22
2024-03-13T04:11:26.415Z,6.24
2024-03-13T04:13:53.437Z,6.22
2024-03-13T04:16:20.358Z,6.23
2024-03-13T04:18:48.015Z,6.18
2024-03-13T04:21:14.787Z,6.15
2024-03-13T04:23:41.634Z,6.10
2024-03-13T04:26:08.494Z,6.05
2024-03-13T04:28:35.815Z,6.06
2024-03-13T04:31:02.713Z,6.12
2024-03-13T04:33:30.088Z,6.09
2024-03-13T04:35:56.837Z,6.09
2024-03-13T04:38:23.922Z,6.06
2024-03-13T04:40:50.742Z,6.08
2024-03-13T04:43:17.869Z,6.04
2024-03-13T04:45:44.713Z,5.98
2024-03-13T04:48:11.713Z,5.98
2024-03-13T04:50:38.575Z,6.06
2024-03-13T04:53:05.516Z,6.01
2024-03-13T04:55:32.647Z,5.98
2024-03-13T04:57:59.681Z,5.98
2024-03-13T05:00:26.830Z,5.95
2024-03-13T05:02:54.126Z,5.99
2024-03-13T05:05:21.009Z,6.02
2024-03-13T05:07:47.898Z,6.01
2024-03-13T05:10:15.055Z,6.00
2024-03-13T05:12:41.982Z,5.97
2024-03-13T05:15:09.137Z,5.91
2024-03-13T05:17:36.613Z,5.91
2024-03-13T05:20:04.534Z,5.88
2024-03-13T05:22:31.437Z,5.87
2024-03-13T05:24:58.256Z,5.87
2024-03-13T05:27:25.751Z,5.87
2024-03-13T05:29:53.334Z,5.88
2024-03-13T05:32:20.117Z,5.85
2024-03-13T05:34:46.937Z,5.80
2024-03-13T05:37:13.737Z,5.80
2024-03-13T05:39:41.008Z,5.77
2024-03-13T05:42:08.510Z,5.76
2024-03-13T05:44:35.341Z,5.77
2024-03-13T05:47:02.213Z,5.77
2024-03-13T05:49:29.143Z,5.73
2024-03-13T05:51:56.058Z,5.76
2024-03-13T05:54:22.887Z,5.74
2024-03-13T05:56:49.609Z,5.75
2024-03-13T05:59:16.374Z,5.71
2024-03-13T06:01:43.227Z,5.69
2024-03-13T06:04:10.083Z,5.70
2024-03-13T06:06:36.774Z,5.73
2024-03-13T06:09:03.418Z,5.74
2024-03-13T06:11:30.214Z,5.72
2024-03-13T06:13:57.147Z,5.68
2024-03-13T06:16:24.032Z,5.66
2024-03-13T06:18:51.010Z,5.64
2024-03-13T06:21:17.780Z,5.65
2024-03-13T06:23:44.507Z,5.65
2024-03-13T06:26:11.349Z,5.64
2024-03-13T06:28:38.074Z,5.60
2024-03-13T06:31:04.949Z,5.60
2024-03-13T06:33:31.669Z,5.58
2024-03-13T06:35:58.438Z,5.57
2024-03-13T06:38:25.270Z,5.55
2024-03-13T06:40:52.021Z,5.54
2024-03-13T06:43:19.198Z,5.53
2024-03-13T06:45:46.016Z,5.51
2024-03-13T06:48:13.757Z,5.50
2024-03-13T06:50:40.655Z,5.49
2024-03-13T06:53:07.509Z,5.48
2024-03-13T06:55:34.468Z,5.48
2024-03-13T06:58:01.639Z,5.46
2024-03-13T07:00:28.426Z,5.44
2024-03-13T07:02:55.845Z,5.45
2024-03-13T07:05:22.694Z,5.47
2024-03-13T07:07:49.548Z,5.50
2024-03-13T07:10:16.805Z,5.50
2024-03-13T07:12:43.765Z,5.52
2024-03-13T07:15:10.509Z,5.56
2024-03-13T07:17:40.451Z,5.59
2024-03-13T07:20:07.775Z,5.58
2024-03-13T07:22:34.623Z,5.61
2024-03-13T07:25:01.563Z,5.63
2024-03-13T07:27:28.356Z,5.59
2024-03-13T07:29:55.106Z,5.60
2024-03-13T07:32:21.770Z,5.62
2024-03-13T07:34:48.766Z,5.64
2024-03-13T07:37:15.604Z,5.67
2024-03-13T07:39:42.425Z,5.68
2024-03-13T07:42:09.188Z,5.71
2024-03-13T07:44:36.014Z,5.73
2024-03-13T07:47:02.873Z,5.68
2024-03-13T07:49:29.981Z,5.63
2024-03-13T07:51:56.932Z,5.60
2024-03-13T07:54:23.758Z,5.66
2024-03-13T07:56:50.481Z,5.63
2024-03-13T07:59:17.237Z,5.63
2024-03-13T08:01:44.197Z,5.66
2024-03-13T08:04:10.925Z,5.70
2024-03-13T09:06:49.775Z,5.59
2024-03-13T09:09:17.264Z,5.55
2024-03-13T09:11:44.627Z,5.46
2024-03-13T09:14:11.566Z,5.38
2024-03-13T09:16:38.429Z,5.38
2024-03-13T09:19:05.566Z,5.40
2024-03-13T09:21:32.788Z,5.37
2024-03-13T09:24:00.138Z,5.41
2024-03-13T09:26:27.546Z,5.47
2024-03-13T09:28:56.663Z,5.50
2024-03-13T09:31:23.931Z,5.39
2024-03-13T09:33:50.937Z,5.35
2024-03-13T09:36:17.960Z,5.31
2024-03-13T09:38:44.892Z,5.34
2024-03-13T09:41:13.579Z,5.36
2024-03-13T09:43:41.158Z,5.38
2024-03-13T09:46:08.315Z,5.38
2024-03-13T09:48:35.657Z,5.37
2024-03-13T09:51:07.917Z,5.42
2024-03-13T09:53:39.368Z,5.46
2024-03-13T09:56:06.572Z,5.46
2024-03-13T09:58:33.620Z,5.45
2024-03-13T10:01:04.232Z,5.47
2024-03-13T10:03:34.232Z,5.47
2024-03-13T10:06:08.528Z,5.48
2024-03-13T10:08:36.198Z,5.52
2024-03-13T10:11:03.784Z,5.52
2024-03-13T10:13:33.128Z,5.54
2024-03-13T10:16:03.101Z,5.54
2024-03-13T10:18:31.983Z,5.51
2024-03-13T10:21:08.272Z,5.50
2024-03-13T10:23:39.517Z,5.53
2024-03-13T10:26:07.343Z,5.57
2024-03-13T10:28:35.462Z,5.49
2024-03-13T10:31:05.323Z,5.51
2024-03-13T10:33:33.073Z,5.52
2024-03-13T10:36:00.023Z,5.58
2024-03-13T10:38:27.400Z,5.62
2024-03-13T10:40:54.114Z,5.63
2024-03-13T10:43:20.937Z,5.70
2024-03-13T10:45:50.659Z,5.74
2024-03-13T10:48:17.474Z,5.77
2024-03-13T10:50:44.178Z,5.78
2024-03-13T10:53:11.131Z,5.73
2024-03-13T10:55:41.036Z,5.73
2024-03-13T10:58:24.249Z,5.71
2024-03-13T11:00:51.407Z,5.60
2024-03-13T11:03:19.089Z,5.58
2024-03-13T11:05:46.378Z,5.66
2024-03-13T11:08:13.237Z,5.67
2024-03-13T11:10:40.190Z,5.71
2024-03-13T11:13:07.841Z,5.78
2024-03-13T11:15:47.359Z,5.87
2024-03-13T11:18:14.548Z,5.86
2024-03-13T11:21:01.735Z,5.82
2024-03-13T11:23:35.600Z,5.78
2024-03-13T11:26:07.207Z,5.76
2024-03-13T11:28:34.666Z,5.84
2024-03-13T11:31:02.383Z,5.80
2024-03-13T11:33:29.194Z,5.77
2024-03-13T11:35:57.351Z,5.79
2024-03-13T11:38:24.585Z,5.87
2024-03-13T11:40:52.760Z,5.90
2024-03-13T11:43:23.657Z,5.86
2024-03-13T11:45:50.200Z,5.86
2024-03-13T11:48:19.256Z,5.79
2024-03-13T11:51:12.428Z,5.75
2024-03-13T11:53:39.639Z,5.69
2024-03-13T11:56:06.580Z,5.65
2024-03-13T11:58:35.269Z,5.67
2024-03-13T12:01:02.617Z,5.71
2024-03-13T12:03:39.514Z,5.73
2024-03-13T12:06:06.284Z,5.78
2024-03-13T12:08:33.101Z,5.73
2024-03-13T12:10:59.912Z,5.76
2024-03-13T12:13:26.801Z,5.83
2024-03-13T12:15:53.444Z,5.85
2024-03-13T12:18:20.347Z,5.79
2024-03-13T12:20:47.590Z,5.78
2024-03-13T12:23:15.055Z,5.78
2024-03-13T12:25:42.998Z,5.77
2024-03-13T12:28:14.436Z,5.82
2024-03-13T12:30:41.190Z,5.81
2024-03-13T12:33:08.475Z,5.81
2024-03-13T12:35:35.283Z,5.78
2024-03-13T12:38:01.908Z,5.78
2024-03-13T12:40:28.710Z,5.65
2024-03-13T12:42:55.805Z,5.67
2024-03-13T12:45:22.767Z,5.71
2024-03-13T12:47:50.018Z,5.65
2024-03-13T12:50:18.401Z,5.64
2024-03-13T12:52:49.129Z,5.60
2024-03-13T12:55:17.414Z,5.65
2024-03-13T12:57:44.233Z,5.63
2024-03-13T13:00:14.677Z,5.61
2024-03-13T13:02:46.247Z,5.62
2024-03-13T13:05:16.589Z,5.66
2024-03-13T13:07:49.555Z,5.75
2024-03-13T13:10:16.293Z,5.63
2024-03-13T13:12:43.085Z,5.59
2024-03-13T13:15:09.952Z,5.57
2024-03-13T13:17:36.949Z,5.59
2024-03-13T13:20:04.130Z,5.57
2024-03-13T13:22:30.747Z,5.54
2024-03-13T13:24:57.499Z,5.54
2024-03-13T13:27:24.261Z,5.54
2024-03-13T13:29:51.464Z,5.58
2024-03-13T13:32:18.301Z,5.62
2024-03-13T13:34:45.225Z,5.64
2024-03-13T13:37:12.025Z,5.63
2024-03-13T13:39:38.820Z,5.64
2024-03-13T13:42:06.122Z,5.63
2024-03-13T13:44:32.930Z,5.61
2024-03-13T13:46:59.771Z,5.66
2024-03-13T13:49:26.421Z,5.67
2024-03-13T13:51:53.180Z,5.68
2024-03-13T13:54:19.851Z,5.65
2024-03-13T13:56:47.322Z,5.66
2024-03-13T13:59:14.029Z,5.61
2024-03-13T14:01:40.665Z,5.66
2024-03-13T14:04:07.331Z,5.70
2024-03-13T14:06:34.348Z,5.67
2024-03-13T14:09:01.046Z,5.65
2024-03-13T14:11:27.902Z,5.63
2024-03-13T14:13:55.003Z,5.62
2024-03-13T14:16:21.793Z,5.59
2024-03-13T14:18:48.802Z,5.60
2024-03-13T14:21:15.815Z,5.62
2024-03-13T14:23:44.631Z,5.60
2024-03-13T14:26:11.614Z,5.61
2024-03-13T14:28:38.679Z,5.67
2024-03-13T14:31:11.077Z,5.64
2024-03-13T14:33:37.984Z,5.65
2024-03-13T14:36:05.580Z,5.60
2024-03-13T14:38:32.307Z,5.57
2024-03-13T14:40:59.085Z,5.54
2024-03-13T14:43:25.737Z,5.55
2024-03-13T14:45:52.388Z,5.52
2024-03-13T14:48:19.409Z,5.46
2024-03-13T14:50:58.685Z,5.44
2024-03-13T14:53:25.434Z,5.46
2024-03-13T14:55:52.173Z,5.44
2024-03-13T14:58:18.815Z,5.40
2024-03-13T15:00:45.774Z,5.43
2024-03-13T15:03:12.568Z,5.45
2024-03-13T15:05:42.556Z,5.48
2024-03-13T15:08:09.400Z,5.51
2024-03-13T15:10:36.132Z,5.49
2024-03-13T15:13:02.998Z,5.50
2024-03-13T15:15:30.070Z,5.53
2024-03-13T15:17:57.011Z,5.54
2024-03-13T15:20:23.841Z,5.48
2024-03-13T15:22:50.584Z,5.52
2024-03-13T15:25:17.235Z,5.51
2024-03-13T15:27:43.979Z,5.42
2024-03-13T15:30:14.603Z,5.43
2024-03-13T15:32:43.489Z,5.46
2024-03-13T15:35:10.474Z,5.49
2024-03-13T15:37:37.418Z,5.45
2024-03-13T15:40:04.889Z,5.45
2024-03-13T15:42:31.658Z,5.46
2024-03-13T15:44:58.545Z,5.50
2024-03-13T15:47:25.323Z,5.51
2024-03-13T15:49:51.967Z,5.45
2024-03-13T15:52:18.925Z,5.41
2024-03-13T15:54:45.672Z,5.41
2024-03-13T15:57:12.479Z,5.37
2024-03-13T15:59:39.430Z,5.37
2024-03-13T16:02:06.534Z,5.37
2024-03-13T16:04:33.271Z,5.34
2024-03-13T16:07:00.640Z,5.38
2024-03-13T16:09:27.403Z,5.38
2024-03-13T16:11:54.360Z,5.41
2024-03-13T16:14:21.079Z,5.40
2024-03-13T16:16:47.921Z,5.39
2024-03-13T16:19:14.671Z,5.43
2024-03-13T16:21:41.733Z,5.45
2024-03-13T16:24:08.446Z,5.40
2024-03-13T16:26:35.218Z,5.37
2024-03-13T16:29:01.870Z,5.44
2024-03-13T16:31:28.533Z,5.45
2024-03-13T16:33:55.308Z,5.40
2024-03-13T16:36:27.355Z,5.31
2024-03-13T16:38:54.164Z,5.30
2024-03-13T16:41:21.076Z,5.29
2024-03-13T16:43:47.793Z,5.24
2024-03-13T16:46:14.658Z,5.28
2024-03-13T16:48:41.489Z,5.29
2024-03-13T16:51:08.441Z,5.32
2024-03-13T16:53:35.490Z,5.35
2024-03-13T16:56:02.834Z,5.30
2024-03-13T16:58:30.678Z,5.30
2024-03-13T17:00:57.641Z,5.28
2024-03-13T17:03:24.749Z,5.29
2024-03-13T17:05:51.642Z,5.29
2024-03-13T17:08:18.297Z,5.34
2024-03-13T17:10:45.107Z,5.36
2024-03-13T17:13:11.854Z,5.43
2024-03-13T17:15:38.592Z,5.37
2024-03-13T17:18:05.753Z,5.38
2024-03-13T17:20:32.607Z,5.40
2024-03-13T17:22:59.267Z,5.40
2024-03-13T17:25:25.989Z,5.41
2024-03-13T17:27:52.753Z,5.41
2024-03-13T17:30:19.558Z,5.43
2024-03-13T17:32:46.436Z,5.45
2024-03-13T17:35:14.867Z,5.40
2024-03-13T17:37:41.953Z,5.41
2024-03-13T17:40:11.841Z,5.37
2024-03-13T17:42:39.859Z,5.42
2024-03-13T17:45:07.914Z,5.45
2024-03-13T17:47:35.983Z,5.46
2024-03-13T17:50:02.738Z,5.48
2024-03-13T17:52:29.563Z,5.49
2024-03-13T17:54:56.132Z,5.51
2024-03-13T17:57:22.962Z,5.49
2024-03-13T17:59:49.899Z,5.49
2024-03-13T18:02:16.908Z,5.50
2024-03-13T18:04:43.709Z,5.52
2024-03-13T18:07:10.558Z,5.53
2024-03-13T18:09:37.321Z,5.54
2024-03-13T18:12:04.912Z,5.55
2024-03-13T18:14:32.918Z,5.56
2024-03-13T18:17:00.121Z,5.53
2024-03-13T18:19:26.762Z,5.52
2024-03-13T18:21:53.922Z,5.56
2024-03-13T18:24:21.011Z,5.59
2024-03-13T18:26:47.945Z,5.59
2024-03-13T18:29:14.798Z,5.55
2024-03-13T18:31:41.550Z,5.53
2024-03-13T18:34:08.727Z,5.48
2024-03-13T18:36:35.851Z,5.46
2024-03-13T18:39:02.985Z,5.45
2024-03-13T18:41:30.104Z,5.43
2024-03-13T18:43:56.805Z,5.44
2024-03-13T18:46:23.686Z,5.40
2024-03-13T18:48:50.438Z,5.39
2024-03-13T18:51:17.910Z,5.33
2024-03-13T18:53:44.793Z,5.30
2024-03-13T18:56:11.577Z,5.24
2024-03-13T18:58:38.502Z,5.23
2024-03-13T19:01:05.495Z,5.21
2024-03-13T19:03:32.253Z,5.23
2024-03-13T19:05:59.123Z,5.20
2024-03-13T19:08:25.812Z,5.20
2024-03-13T19:10:52.672Z,5.17
2024-03-13T19:13:19.407Z,5.17
2024-03-13T19:15:46.162Z,5.19
2024-03-13T19:18:15.107Z,5.18
2024-03-13T19:20:41.935Z,5.20
2024-03-13T19:23:08.653Z,5.22
2024-03-13T19:25:35.843Z,5.23
2024-03-13T19:28:03.461Z,5.19
2024-03-13T19:30:30.480Z,5.18
2024-03-13T19:32:57.563Z,5.20
2024-03-13T19:35:24.449Z,5.19
2024-03-13T19:37:51.204Z,5.24
2024-03-13T19:40:17.942Z,5.22
2024-03-13T19:42:45.104Z,5.23
2024-03-13T19:45:11.871Z,5.23
2024-03-13T19:47:38.723Z,5.27
2024-03-13T19:50:05.961Z,5.23
2024-03-13T19:52:32.714Z,5.21
2024-03-13T19:54:59.764Z,5.21
2024-03-13T19:57:26.539Z,5.23
2024-03-13T19:59:53.426Z,5.26
2024-03-13T20:02:20.059Z,5.22
2024-03-13T20:04:46.701Z,5.23
2024-03-13T20:07:13.501Z,5.27
2024-03-13T20:09:40.477Z,5.27
2024-03-13T20:12:07.339Z,5.25
2024-03-13T20:14:34.261Z,5.24
2024-03-13T20:17:00.917Z,5.18
2024-03-13T20:19:27.659Z,5.13
2024-03-13T20:21:54.407Z,5.12
2024-03-13T20:24:21.212Z,5.14
2024-03-13T20:26:48.041Z,5.15
2024-03-13T20:29:14.870Z,5.15
2024-03-13T20:31:41.813Z,5.12
2024-03-13T20:34:08.529Z,5.12
2024-03-13T20:36:35.214Z,5.11
2024-03-13T20:39:02.019Z,5.10
2024-03-13T20:41:28.815Z,5.09
2024-03-13T20:43:55.870Z,5.07
2024-03-13T20:46:22.527Z,5.09
2024-03-13T20:48:49.498Z,5.06
2024-03-13T20:51:16.541Z,5.08
2024-03-13T20:53:43.434Z,5.08
2024-03-13T20:56:10.937Z,5.06
2024-03-13T20:58:37.683Z,5.06
2024-03-13T21:01:04.558Z,5.02
2024-03-13T21:03:31.407Z,5.04
2024-03-13T21:05:58.176Z,5.08
2024-03-13T21:08:24.983Z,5.13
2024-03-13T21:10:51.624Z,5.17
2024-03-13T21:13:18.578Z,5.17
2024-03-13T21:15:50.196Z,5.20
2024-03-13T21:18:23.758Z,5.22
2024-03-13T21:20:50.508Z,5.24
2024-03-13T21:23:17.139Z,5.21
2024-03-13T21:25:43.889Z,5.20
2024-03-13T21:28:10.660Z,5.21
2024-03-13T21:30:37.421Z,5.20
2024-03-13T21:33:04.868Z,5.17
2024-03-13T21:35:31.726Z,5.13
2024-03-13T21:37:58.471Z,5.12
2024-03-13T21:40:26.293Z,5.13
2024-03-13T21:42:52.985Z,5.16
2024-03-13T21:45:19.876Z,5.08
2024-03-13T21:47:46.999Z,5.09
2024-03-13T21:50:13.964Z,5.07
2024-03-13T21:52:41.112Z,5.05
2024-03-13T21:55:08.680Z,5.06
2024-03-13T21:57:35.472Z,4.98
2024-03-13T22:00:02.370Z,5.00
2024-03-13T22:02:29.436Z,5.07
2024-03-13T22:04:56.192Z,5.11
2024-03-13T22:07:23.031Z,5.05
2024-03-13T22:09:49.778Z,5.05
2024-03-13T22:12:16.464Z,5.10
2024-03-13T22:14:44.571Z,5.10
2024-03-13T22:17:11.633Z,5.13
2024-03-13T22:19:38.418Z,5.17
2024-03-13T22:22:05.317Z,5.21
2024-03-13T22:24:31.953Z,5.22
2024-03-13T22:26:58.993Z,5.26
2024-03-13T22:29:25.812Z,5.27
2024-03-13T22:31:52.605Z,5.22
2024-03-13T22:34:19.411Z,5.24
2024-03-13T22:36:46.151Z,5.22
2024-03-13T22:39:13.016Z,5.20
2024-03-13T22:41:43.498Z,5.14
2024-03-13T22:44:10.307Z,5.18
2024-03-13T22:46:37.912Z,5.17
2024-03-13T22:49:04.793Z,5.19
2024-03-13T22:51:31.674Z,5.17
2024-03-13T22:53:58.439Z,5.14
2024-03-13T22:56:26.389Z,5.14
2024-03-13T22:58:53.846Z,5.14
2024-03-13T23:01:20.610Z,5.14
2024-03-13T23:03:47.426Z,5.07
2024-03-13T23:06:14.167Z,5.09
2024-03-13T23:08:40.892Z,5.12
2024-03-13T23:11:07.600Z,5.11
2024-03-13T23:13:34.710Z,5.11
2024-03-13T23:16:02.798Z,5.12
2024-03-13T23:18:29.645Z,5.06
2024-03-13T23:20:56.702Z,5.07
2024-03-13T23:23:23.538Z,5.12
2024-03-13T23:25:50.405Z,5.12
2024-03-13T23:28:17.127Z,5.08
2024-03-13T23:30:43.715Z,5.05
2024-03-13T23:33:10.758Z,5.06
2024-03-13T23:35:37.752Z,5.08
2024-03-13T23:38:04.704Z,5.09
2024-03-13T23:40:31.473Z,5.12
2024-03-13T23:42:58.194Z,5.12
2024-03-13T23:45:24.953Z,5.11
2024-03-13T23:47:51.758Z,5.16
2024-03-13T23:50:18.548Z,5.16
2024-03-13T23:52:45.279Z,5.09
2024-03-13T23:55:12.456Z,5.09
2024-03-13T23:57:39.451Z,5.11
